Terminal Aerodrome Forecast
Issued by NWS Caribou, ME

Home | Current Version | Previous Version | Text Only | Print | Product List | Glossary On
Versions: 1 2 3 4 5 6 7 8 9 10 11 12 13 14 15 16 17 18 19 20 21 22 23 24 25 26
183
FTUS41 KCAR 122337
TAFCAR
TAF
KCAR 122337Z 1300/1324 VRB03KT P6SM SCT035
     FM131400 08006KT P6SM BKN030
     FM131800 05006KT P6SM VCSH OVC030
     FM132100 02006KT 3SM -SN BR OVC020=

USA.gov is the U.S. government's official web portal to all federal, state and local government web resources and services.